sensor_id;sensor_type;location;lat;lon;timestamp;pressure;altitude;pressure_sealevel;temperature;humidity
6942;BME280;3510;43.200;27.920;2023-03-15T00:01:16;100430.09;;;16.08;42.65
6942;BME280;3510;43.200;27.920;2023-03-15T00:03:48;100422.03;;;16.15;42.97
6942;BME280;3510;43.200;27.920;2023-03-15T00:06:15;100417.78;;;15.99;43.15
6942;BME280;3510;43.200;27.920;2023-03-15T00:08:43;100411.81;;;16.13;42.81
6942;BME280;3510;43.200;27.920;2023-03-15T00:11:12;100415.75;;;15.79;43.58
6942;BME280;3510;43.200;27.920;2023-03-15T00:13:38;100371.47;;;15.59;43.24
6942;BME280;3510;43.200;27.920;2023-03-15T00:16:06;100378.75;;;15.67;43.09
6942;BME280;3510;43.200;27.920;2023-03-15T00:18:33;100399.81;;;16.11;42.79
6942;BME280;3510;43.200;27.920;2023-03-15T00:21:00;100361.66;;;16.09;42.78
6942;BME280;3510;43.200;27.920;2023-03-15T00:23:27;100267.16;;;15.38;42.80
6942;BME280;3510;43.200;27.920;2023-03-15T00:25:57;100393.44;;;16.34;42.58
6942;BME280;3510;43.200;27.920;2023-03-15T00:28:24;100384.88;;;15.86;43.19
6942;BME280;3510;43.200;27.920;2023-03-15T00:31:02;100384.50;;;16.09;43.07
6942;BME280;3510;43.200;27.920;2023-03-15T00:33:29;100385.47;;;16.28;42.88
6942;BME280;3510;43.200;27.920;2023-03-15T00:36:02;100377.94;;;15.98;43.11
6942;BME280;3510;43.200;27.920;2023-03-15T00:38:31;100373.66;;;15.97;43.25
6942;BME280;3510;43.200;27.920;2023-03-15T00:41:03;100334.03;;;15.99;42.80
6942;BME280;3510;43.200;27.920;2023-03-15T00:43:30;100360.81;;;16.41;42.23
6942;BME280;3510;43.200;27.920;2023-03-15T00:45:58;100357.06;;;16.18;42.43
6942;BME280;3510;43.200;27.920;2023-03-15T00:48:25;100353.72;;;16.19;42.24
6942;BME280;3510;43.200;27.920;2023-03-15T00:51:01;100353.75;;;16.05;42.41
6942;BME280;3510;43.200;27.920;2023-03-15T00:53:28;100347.94;;;16.22;42.14
6942;BME280;3510;43.200;27.920;2023-03-15T00:55:54;100317.44;;;15.75;42.83
6942;BME280;3510;43.200;27.920;2023-03-15T00:58:23;100266.16;;;15.80;42.09
6942;BME280;3510;43.200;27.920;2023-03-15T01:00:50;100329.66;;;16.44;41.53
6942;BME280;3510;43.200;27.920;2023-03-15T01:03:17;100330.06;;;16.52;41.04
6942;BME280;3510;43.200;27.920;2023-03-15T01:05:44;100325.53;;;16.79;40.48
6942;BME280;3510;43.200;27.920;2023-03-15T01:08:11;100318.13;;;16.67;40.99
6942;BME280;3510;43.200;27.920;2023-03-15T01:10:51;100306.78;;;16.44;41.44
6942;BME280;3510;43.200;27.920;2023-03-15T01:13:18;100310.09;;;16.27;41.93
6942;BME280;3510;43.200;27.920;2023-03-15T01:16:01;100306.66;;;15.79;42.72
6942;BME280;3510;43.200;27.920;2023-03-15T01:18:31;100259.03;;;15.58;42.55
6942;BME280;3510;43.200;27.920;2023-03-15T01:20:58;100302.22;;;16.06;42.27
6942;BME280;3510;43.200;27.920;2023-03-15T01:23:25;100311.00;;;16.60;41.37
6942;BME280;3510;43.200;27.920;2023-03-15T01:25:51;100256.94;;;16.13;41.85
6942;BME280;3510;43.200;27.920;2023-03-15T01:28:19;100304.44;;;16.80;41.06
6942;BME280;3510;43.200;27.920;2023-03-15T01:30:49;100295.34;;;16.68;41.03
6942;BME280;3510;43.200;27.920;2023-03-15T01:33:19;100299.50;;;16.50;41.02
6942;BME280;3510;43.200;27.920;2023-03-15T01:35:46;100295.84;;;15.97;42.48
6942;BME280;3510;43.200;27.920;2023-03-15T01:38:13;100282.38;;;15.99;42.56
6942;BME280;3510;43.200;27.920;2023-03-15T01:40:40;100275.34;;;16.09;41.90
6942;BME280;3510;43.200;27.920;2023-03-15T01:43:14;100252.00;;;16.00;41.82
6942;BME280;3510;43.200;27.920;2023-03-15T01:46:02;100290.13;;;16.33;42.04
6942;BME280;3510;43.200;27.920;2023-03-15T01:58:02;100285.50;;;16.09;42.62
6942;BME280;3510;43.200;27.920;2023-03-15T02:00:31;100285.28;;;16.37;42.11
6942;BME280;3510;43.200;27.920;2023-03-15T02:03:01;100269.56;;;16.44;41.93
6942;BME280;3510;43.200;27.920;2023-03-15T02:05:34;100260.28;;;15.81;43.03
6942;BME280;3510;43.200;27.920;2023-03-15T02:08:03;100265.91;;;16.07;42.76
6942;BME280;3510;43.200;27.920;2023-03-15T02:10:35;100248.59;;;16.00;42.89
6942;BME280;3510;43.200;27.920;2023-03-15T02:13:05;100276.28;;;16.28;42.71
6942;BME280;3510;43.200;27.920;2023-03-15T02:15:33;100271.38;;;16.14;42.94
6942;BME280;3510;43.200;27.920;2023-03-15T02:18:00;100272.25;;;16.15;43.43
6942;BME280;3510;43.200;27.920;2023-03-15T02:20:31;100269.75;;;16.00;43.68
6942;BME280;3510;43.200;27.920;2023-03-15T02:23:03;100284.59;;;16.09;43.18
6942;BME280;3510;43.200;27.920;2023-03-15T02:25:38;100257.88;;;15.99;42.96
6942;BME280;3510;43.200;27.920;2023-03-15T02:28:12;100197.50;;;15.77;42.79
6942;BME280;3510;43.200;27.920;2023-03-15T02:30:41;100281.69;;;15.86;44.07
6942;BME280;3510;43.200;27.920;2023-03-15T02:33:12;100279.91;;;16.00;43.45
6942;BME280;3510;43.200;27.920;2023-03-15T02:35:41;100287.38;;;15.97;43.77
6942;BME280;3510;43.200;27.920;2023-03-15T02:38:08;100282.38;;;15.67;44.28
6942;BME280;3510;43.200;27.920;2023-03-15T02:40:35;100286.94;;;15.89;43.96
6942;BME280;3510;43.200;27.920;2023-03-15T02:46:27;100238.81;;;15.45;44.63
6942;BME280;3510;43.200;27.920;2023-03-15T02:49:08;100254.25;;;15.64;44.21
6942;BME280;3510;43.200;27.920;2023-03-15T02:51:37;100271.78;;;15.45;45.01
6942;BME280;3510;43.200;27.920;2023-03-15T02:54:03;100234.84;;;15.80;44.05
6942;BME280;3510;43.200;27.920;2023-03-15T02:56:30;100278.88;;;15.96;44.33
6942;BME280;3510;43.200;27.920;2023-03-15T02:58:58;100281.13;;;16.07;44.29
6942;BME280;3510;43.200;27.920;2023-03-15T03:01:24;100270.41;;;16.12;44.20
6942;BME280;3510;43.200;27.920;2023-03-15T03:03:53;100273.50;;;15.76;45.10
6942;BME280;3510;43.200;27.920;2023-03-15T03:06:20;100266.81;;;15.46;45.69
6942;BME280;3510;43.200;27.920;2023-03-15T03:08:47;100247.84;;;15.40;45.32
6942;BME280;3510;43.200;27.920;2023-03-15T03:11:15;100274.50;;;15.94;44.88
6942;BME280;3510;43.200;27.920;2023-03-15T03:13:42;100242.13;;;15.73;45.13
6942;BME280;3510;43.200;27.920;2023-03-15T03:16:09;100273.66;;;15.03;45.52
6942;BME280;3510;43.200;27.920;2023-03-15T03:18:36;100219.47;;;15.77;43.90
6942;BME280;3510;43.200;27.920;2023-03-15T03:21:19;100280.59;;;16.29;43.72
6942;BME280;3510;43.200;27.920;2023-03-15T03:23:45;100282.63;;;16.68;42.71
6942;BME280;3510;43.200;27.920;2023-03-15T03:26:14;100286.72;;;16.65;42.26
6942;BME280;3510;43.200;27.920;2023-03-15T03:28:42;100275.59;;;16.14;42.76
6942;BME280;3510;43.200;27.920;2023-03-15T03:31:14;100281.88;;;16.37;42.79
6942;BME280;3510;43.200;27.920;2023-03-15T03:33:41;100279.16;;;16.17;43.52
6942;BME280;3510;43.200;27.920;2023-03-15T03:36:07;100277.25;;;16.13;43.32
6942;BME280;3510;43.200;27.920;2023-03-15T03:38:35;100277.34;;;15.84;44.32
6942;BME280;3510;43.200;27.920;2023-03-15T03:41:01;100276.53;;;16.16;43.34
6942;BME280;3510;43.200;27.920;2023-03-15T03:43:29;100280.78;;;16.01;43.52
6942;BME280;3510;43.200;27.920;2023-03-15T03:45:55;100269.63;;;16.13;43.12
6942;BME280;3510;43.200;27.920;2023-03-15T03:48:21;100269.16;;;16.20;43.15
6942;BME280;3510;43.200;27.920;2023-03-15T03:50:48;100271.72;;;16.37;42.81
6942;BME280;3510;43.200;27.920;2023-03-15T03:53:15;100276.34;;;16.13;43.40
6942;BME280;3510;43.200;27.920;2023-03-15T03:55:43;100274.31;;;16.06;43.52
6942;BME280;3510;43.200;27.920;2023-03-15T03:58:10;100268.75;;;16.13;43.76
6942;BME280;3510;43.200;27.920;2023-03-15T04:00:37;100266.13;;;16.28;43.83
6942;BME280;3510;43.200;27.920;2023-03-15T04:03:04;100258.84;;;15.70;44.60
6942;BME280;3510;43.200;27.920;2023-03-15T04:05:30;100268.31;;;15.89;44.47
6942;BME280;3510;43.200;27.920;2023-03-15T04:07:57;100271.81;;;15.30;44.91
6942;BME280;3510;43.200;27.920;2023-03-15T04:10:24;100264.13;;;15.43;44.83
6942;BME280;3510;43.200;27.920;2023-03-15T04:12:53;100236.94;;;15.72;43.79
6942;BME280;3510;43.200;27.920;2023-03-15T04:15:21;100255.03;;;16.09;42.99
6942;BME280;3510;43.200;27.920;2023-03-15T04:17:51;100247.44;;;15.17;44.99
6942;BME280;3510;43.200;27.920;2023-03-15T04:20:20;100239.25;;;15.53;44.44
6942;BME280;3510;43.200;27.920;2023-03-15T04:22:48;100252.50;;;15.78;43.98
6942;BME280;3510;43.200;27.920;2023-03-15T04:25:15;100251.47;;;15.60;44.21
6942;BME280;3510;43.200;27.920;2023-03-15T04:27:42;100250.66;;;15.76;44.57
6942;BME280;3510;43.200;27.920;2023-03-15T04:30:11;100244.31;;;15.67;43.67
6942;BME280;3510;43.200;27.920;2023-03-15T04:32:38;100252.34;;;16.23;43.09
6942;BME280;3510;43.200;27.920;2023-03-15T04:35:07;100255.91;;;16.91;41.36
6942;BME280;3510;43.200;27.920;2023-03-15T04:37:34;100256.91;;;16.95;41.75
6942;BME280;3510;43.200;27.920;2023-03-15T04:40:00;100248.22;;;16.74;41.94
6942;BME280;3510;43.200;27.920;2023-03-15T04:42:28;100217.56;;;17.23;41.08
6942;BME280;3510;43.200;27.920;2023-03-15T04:44:55;100241.44;;;17.08;41.34
6942;BME280;3510;43.200;27.920;2023-03-15T04:47:25;100194.34;;;16.47;41.58
6942;BME280;3510;43.200;27.920;2023-03-15T04:50:02;100224.25;;;16.19;42.30
6942;BME280;3510;43.200;27.920;2023-03-15T04:52:30;100261.22;;;16.63;42.14
6942;BME280;3510;43.200;27.920;2023-03-15T04:54:56;100241.94;;;16.34;42.40
6942;BME280;3510;43.200;27.920;2023-03-15T04:57:23;100231.41;;;16.10;42.59
6942;BME280;3510;43.200;27.920;2023-03-15T04:59:51;100261.56;;;15.58;43.58
6942;BME280;3510;43.200;27.920;2023-03-15T05:02:18;100254.59;;;16.02;43.39
6942;BME280;3510;43.200;27.920;2023-03-15T05:04:46;100227.53;;;16.67;41.96
6942;BME280;3510;43.200;27.920;2023-03-15T05:07:13;100252.69;;;16.96;41.57
6942;BME280;3510;43.200;27.920;2023-03-15T05:09:39;100206.72;;;16.91;41.01
6942;BME280;3510;43.200;27.920;2023-03-15T05:12:07;100228.03;;;17.11;40.97
6942;BME280;3510;43.200;27.920;2023-03-15T05:14:33;100239.13;;;17.31;40.65
6942;BME280;3510;43.200;27.920;2023-03-15T05:17:00;100232.66;;;16.51;42.14
6942;BME280;3510;43.200;27.920;2023-03-15T05:19:28;100221.66;;;16.85;41.53
6942;BME280;3510;43.200;27.920;2023-03-15T05:21:59;100218.66;;;16.59;41.88
6942;BME280;3510;43.200;27.920;2023-03-15T05:24:26;100218.69;;;16.93;41.68
6942;BME280;3510;43.200;27.920;2023-03-15T05:26:53;100210.13;;;17.81;40.14
6942;BME280;3510;43.200;27.920;2023-03-15T05:29:20;100182.09;;;17.08;40.98
6942;BME280;3510;43.200;27.920;2023-03-15T05:31:48;100186.06;;;17.56;39.84
6942;BME280;3510;43.200;27.920;2023-03-15T05:34:16;100209.09;;;16.72;41.88
6942;BME280;3510;43.200;27.920;2023-03-15T05:36:43;100151.44;;;17.05;40.63
6942;BME280;3510;43.200;27.920;2023-03-15T05:39:12;100204.88;;;17.60;40.16
6942;BME280;3510;43.200;27.920;2023-03-15T05:41:41;100196.56;;;17.45;40.01
6942;BME280;3510;43.200;27.920;2023-03-15T05:44:08;100200.63;;;17.96;39.70
6942;BME280;3510;43.200;27.920;2023-03-15T05:46:34;100195.91;;;17.31;41.02
6942;BME280;3510;43.200;27.920;2023-03-15T05:49:01;100194.88;;;18.00;39.73
6942;BME280;3510;43.200;27.920;2023-03-15T05:51:28;100190.25;;;17.74;39.91
6942;BME280;3510;43.200;27.920;2023-03-15T05:53:55;100210.50;;;18.68;38.63
6942;BME280;3510;43.200;27.920;2023-03-15T05:56:23;100185.75;;;18.65;38.34
6942;BME280;3510;43.200;27.920;2023-03-15T05:58:50;100198.59;;;18.47;38.99
6942;BME280;3510;43.200;27.920;2023-03-15T06:01:16;100157.50;;;17.80;39.91
6942;BME280;3510;43.200;27.920;2023-03-15T06:03:43;100129.66;;;18.84;37.74
6942;BME280;3510;43.200;27.920;2023-03-15T06:06:10;100161.78;;;19.24;37.30
6942;BME280;3510;43.200;27.920;2023-03-15T06:08:37;100154.44;;;20.01;36.13
6942;BME280;3510;43.200;27.920;2023-03-15T06:11:04;100085.09;;;18.34;37.98
6942;BME280;3510;43.200;27.920;2023-03-15T06:13:32;100156.53;;;19.42;36.55
6942;BME280;3510;43.200;27.920;2023-03-15T06:15:59;100177.09;;;19.68;35.99
6942;BME280;3510;43.200;27.920;2023-03-15T06:18:26;100174.16;;;19.14;36.93
6942;BME280;3510;43.200;27.920;2023-03-15T06:20:52;100177.91;;;19.23;36.71
6942;BME280;3510;43.200;27.920;2023-03-15T06:23:19;100101.41;;;17.41;39.34
6942;BME280;3510;43.200;27.920;2023-03-15T06:25:46;100157.97;;;18.50;38.92
6942;BME280;3510;43.200;27.920;2023-03-15T06:28:13;100142.25;;;19.02;37.82
6942;BME280;3510;43.200;27.920;2023-03-15T06:30:41;100145.97;;;19.10;37.52
6942;BME280;3510;43.200;27.920;2023-03-15T06:33:08;100153.38;;;19.27;37.31
6942;BME280;3510;43.200;27.920;2023-03-15T06:35:36;100151.31;;;17.94;39.42
6942;BME280;3510;43.200;27.920;2023-03-15T06:38:02;100145.84;;;18.45;39.11
6942;BME280;3510;43.200;27.920;2023-03-15T06:40:29;100116.81;;;18.41;38.61
6942;BME280;3510;43.200;27.920;2023-03-15T06:42:56;100111.59;;;18.80;38.24
6942;BME280;3510;43.200;27.920;2023-03-15T06:45:28;100137.09;;;18.80;38.71
6942;BME280;3510;43.200;27.920;2023-03-15T06:47:58;100126.72;;;18.35;39.68
6942;BME280;3510;43.200;27.920;2023-03-15T06:50:35;100143.34;;;19.09;38.22
6942;BME280;3510;43.200;27.920;2023-03-15T06:53:02;100147.69;;;17.52;40.78
6942;BME280;3510;43.200;27.920;2023-03-15T06:55:29;100152.31;;;17.60;40.89
6942;BME280;3510;43.200;27.920;2023-03-15T06:57:56;100145.41;;;18.14;39.97
6942;BME280;3510;43.200;27.920;2023-03-15T07:00:23;100167.81;;;17.65;41.27
6942;BME280;3510;43.200;27.920;2023-03-15T07:02:50;100132.63;;;17.19;41.82
6942;BME280;3510;43.200;27.920;2023-03-15T07:05:21;100067.69;;;17.08;41.53
6942;BME280;3510;43.200;27.920;2023-03-15T07:07:48;100145.69;;;17.27;42.00
6942;BME280;3510;43.200;27.920;2023-03-15T07:10:15;100157.16;;;17.54;41.73
6942;BME280;3510;43.200;27.920;2023-03-15T07:12:42;100166.03;;;17.45;42.00
6942;BME280;3510;43.200;27.920;2023-03-15T07:15:09;100166.59;;;17.39;42.40
6942;BME280;3510;43.200;27.920;2023-03-15T07:17:36;100092.69;;;18.54;39.73
6942;BME280;3510;43.200;27.920;2023-03-15T07:20:04;100177.03;;;19.66;38.19
6942;BME280;3510;43.200;27.920;2023-03-15T07:22:32;100176.31;;;19.48;38.51
6942;BME280;3510;43.200;27.920;2023-03-15T07:24:59;100132.75;;;19.43;37.84
6942;BME280;3510;43.200;27.920;2023-03-15T07:27:29;100172.22;;;19.74;38.34
6942;BME280;3510;43.200;27.920;2023-03-15T07:29:56;100102.38;;;19.97;36.97
6942;BME280;3510;43.200;27.920;2023-03-15T07:32:22;100170.88;;;20.08;37.47
6942;BME280;3510;43.200;27.920;2023-03-15T07:34:49;100149.47;;;20.04;37.05
6942;BME280;3510;43.200;27.920;2023-03-15T07:37:17;100146.72;;;19.30;38.70
6942;BME280;3510;43.200;27.920;2023-03-15T07:39:45;100186.13;;;19.82;37.97
6942;BME280;3510;43.200;27.920;2023-03-15T07:42:11;100185.47;;;18.99;38.67
6942;BME280;3510;43.200;27.920;2023-03-15T07:44:38;100175.91;;;19.82;37.34
6942;BME280;3510;43.200;27.920;2023-03-15T07:47:05;100177.31;;;18.87;39.47
6942;BME280;3510;43.200;27.920;2023-03-15T07:49:32;100172.81;;;19.46;38.35
6942;BME280;3510;43.200;27.920;2023-03-15T07:51:59;100188.97;;;19.24;37.88
6942;BME280;3510;43.200;27.920;2023-03-15T07:54:27;100131.88;;;18.16;39.55
6942;BME280;3510;43.200;27.920;2023-03-15T07:56:57;100155.66;;;19.19;37.93
6942;BME280;3510;43.200;27.920;2023-03-15T07:59:24;100192.91;;;19.81;37.27
6942;BME280;3510;43.200;27.920;2023-03-15T08:01:51;100174.78;;;19.08;38.27
6942;BME280;3510;43.200;27.920;2023-03-15T08:04:17;100186.22;;;19.18;38.73
6942;BME280;3510;43.200;27.920;2023-03-15T08:06:45;100127.97;;;19.28;38.43
6942;BME280;3510;43.200;27.920;2023-03-15T08:09:12;100181.44;;;19.04;38.92
6942;BME280;3510;43.200;27.920;2023-03-15T08:11:38;100164.09;;;18.75;39.31
6942;BME280;3510;43.200;27.920;2023-03-15T08:14:07;100132.94;;;19.25;38.41
6942;BME280;3510;43.200;27.920;2023-03-15T08:16:34;100175.31;;;19.44;38.81
6942;BME280;3510;43.200;27.920;2023-03-15T08:19:01;100104.06;;;18.01;41.26
6942;BME280;3510;43.200;27.920;2023-03-15T08:21:27;100127.97;;;18.24;40.85
6942;BME280;3510;43.200;27.920;2023-03-15T08:23:58;100175.03;;;18.12;41.66
6942;BME280;3510;43.200;27.920;2023-03-15T08:26:25;100119.94;;;19.64;38.80
6942;BME280;3510;43.200;27.920;2023-03-15T08:28:52;100137.72;;;18.74;39.91
6942;BME280;3510;43.200;27.920;2023-03-15T08:31:20;100142.59;;;18.49;41.34
6942;BME280;3510;43.200;27.920;2023-03-15T08:33:47;100167.59;;;19.20;39.64
6942;BME280;3510;43.200;27.920;2023-03-15T08:36:13;100117.38;;;19.19;39.37
6942;BME280;3510;43.200;27.920;2023-03-15T08:38:41;100171.94;;;19.90;38.49
6942;BME280;3510;43.200;27.920;2023-03-15T08:41:08;100171.44;;;20.24;37.95
6942;BME280;3510;43.200;27.920;2023-03-15T08:43:34;100173.53;;;20.86;37.32
6942;BME280;3510;43.200;27.920;2023-03-15T08:46:01;100152.19;;;20.34;37.52
6942;BME280;3510;43.200;27.920;2023-03-15T08:48:30;100143.69;;;18.96;40.30
6942;BME280;3510;43.200;27.920;2023-03-15T08:51:00;100125.75;;;18.52;40.00
6942;BME280;3510;43.200;27.920;2023-03-15T08:53:30;100168.13;;;19.34;40.11
6942;BME280;3510;43.200;27.920;2023-03-15T08:55:58;100152.75;;;19.55;39.70
6942;BME280;3510;43.200;27.920;2023-03-15T08:58:25;100147.09;;;18.75;40.51
6942;BME280;3510;43.200;27.920;2023-03-15T09:00:52;100166.94;;;19.69;40.19
6942;BME280;3510;43.200;27.920;2023-03-15T09:03:19;100163.56;;;19.70;40.01
6942;BME280;3510;43.200;27.920;2023-03-15T09:05:48;100125.59;;;20.53;38.22
6942;BME280;3510;43.200;27.920;2023-03-15T09:08:29;100147.72;;;21.32;37.47
6942;BME280;3510;43.200;27.920;2023-03-15T09:10:58;100156.19;;;21.58;36.67
6942;BME280;3510;43.200;27.920;2023-03-15T09:13:26;100158.34;;;21.44;36.38
6942;BME280;3510;43.200;27.920;2023-03-15T09:15:55;100157.16;;;21.33;36.93
6942;BME280;3510;43.200;27.920;2023-03-15T09:18:22;100116.38;;;20.33;37.57
6942;BME280;3510;43.200;27.920;2023-03-15T09:20:50;100147.63;;;20.49;38.53
6942;BME280;3510;43.200;27.920;2023-03-15T09:23:17;100137.31;;;19.98;39.68
6942;BME280;3510;43.200;27.920;2023-03-15T09:25:44;100149.47;;;18.71;42.06
6942;BME280;3510;43.200;27.920;2023-03-15T09:28:11;100117.81;;;18.45;42.50
6942;BME280;3510;43.200;27.920;2023-03-15T09:30:39;100153.38;;;19.27;41.36
6942;BME280;3510;43.200;27.920;2023-03-15T09:33:07;100150.34;;;18.92;41.71
6942;BME280;3510;43.200;27.920;2023-03-15T09:35:34;100148.38;;;19.51;40.22
6942;BME280;3510;43.200;27.920;2023-03-15T09:38:02;100121.59;;;18.96;41.44
6942;BME280;3510;43.200;27.920;2023-03-15T09:40:31;100092.06;;;19.94;39.86
6942;BME280;3510;43.200;27.920;2023-03-15T09:43:03;100124.78;;;20.04;39.42
6942;BME280;3510;43.200;27.920;2023-03-15T09:45:39;100130.06;;;20.59;38.52
6942;BME280;3510;43.200;27.920;2023-03-15T09:48:12;100121.03;;;20.97;38.38
6942;BME280;3510;43.200;27.920;2023-03-15T09:50:44;100123.44;;;20.92;38.60
6942;BME280;3510;43.200;27.920;2023-03-15T10:17:49;100095.94;;;19.83;40.57
6942;BME280;3510;43.200;27.920;2023-03-15T10:20:24;100105.00;;;20.75;38.46
6942;BME280;3510;43.200;27.920;2023-03-15T10:23:10;100070.81;;;21.29;37.41
6942;BME280;3510;43.200;27.920;2023-03-15T10:25:44;100104.28;;;21.35;37.52
6942;BME280;3510;43.200;27.920;2023-03-15T10:36:12;100092.81;;;20.67;39.17
6942;BME280;3510;43.200;27.920;2023-03-15T10:38:40;100087.69;;;20.16;40.08
6942;BME280;3510;43.200;27.920;2023-03-15T10:41:10;100063.78;;;19.42;41.13
6942;BME280;3510;43.200;27.920;2023-03-15T10:46:21;100065.38;;;20.10;41.22
6942;BME280;3510;43.200;27.920;2023-03-15T10:48:52;99909.31;;;18.57;41.74
6942;BME280;3510;43.200;27.920;2023-03-15T10:51:25;100049.66;;;19.74;41.46
6942;BME280;3510;43.200;27.920;2023-03-15T10:53:55;100019.84;;;19.50;41.63
6942;BME280;3510;43.200;27.920;2023-03-15T10:56:25;99962.38;;;19.86;40.55
6942;BME280;3510;43.200;27.920;2023-03-15T10:58:54;99968.69;;;20.22;39.55
6942;BME280;3510;43.200;27.920;2023-03-15T11:01:24;100007.84;;;21.06;38.65
6942;BME280;3510;43.200;27.920;2023-03-15T11:06:45;100044.94;;;21.48;38.16
6942;BME280;3510;43.200;27.920;2023-03-15T11:09:15;100037.91;;;21.13;38.09
6942;BME280;3510;43.200;27.920;2023-03-15T11:11:58;100031.63;;;19.69;40.86
6942;BME280;3510;43.200;27.920;2023-03-15T11:14:27;100027.63;;;19.53;41.45
6942;BME280;3510;43.200;27.920;2023-03-15T11:17:02;100022.28;;;18.99;43.18
6942;BME280;3510;43.200;27.920;2023-03-15T11:19:31;99987.47;;;19.48;42.08
6942;BME280;3510;43.200;27.920;2023-03-15T11:22:01;99969.50;;;20.21;40.85
6942;BME280;3510;43.200;27.920;2023-03-15T11:24:29;100015.38;;;20.99;39.93
6942;BME280;3510;43.200;27.920;2023-03-15T11:26:58;99946.66;;;21.43;38.36
6942;BME280;3510;43.200;27.920;2023-03-15T11:29:28;99968.41;;;21.94;37.63
6942;BME280;3510;43.200;27.920;2023-03-15T11:31:57;99983.81;;;20.43;40.60
6942;BME280;3510;43.200;27.920;2023-03-15T11:34:34;99978.06;;;21.08;39.52
6942;BME280;3510;43.200;27.920;2023-03-15T11:37:10;99967.09;;;21.75;38.23
6942;BME280;3510;43.200;27.920;2023-03-15T11:39:41;99974.38;;;22.26;37.40
6942;BME280;3510;43.200;27.920;2023-03-15T11:42:13;99978.94;;;21.38;39.05
6942;BME280;3510;43.200;27.920;2023-03-15T11:44:44;99978.47;;;21.21;39.09
6942;BME280;3510;43.200;27.920;2023-03-15T11:47:17;99980.06;;;22.14;37.80
6942;BME280;3510;43.200;27.920;2023-03-15T11:49:49;99987.59;;;20.83;40.03
6942;BME280;3510;43.200;27.920;2023-03-15T11:52:20;99981.41;;;21.35;39.01
6942;BME280;3510;43.200;27.920;2023-03-15T11:54:48;99986.84;;;21.79;37.93
6942;BME280;3510;43.200;27.920;2023-03-15T11:57:39;99981.41;;;21.35;38.93
6942;BME280;3510;43.200;27.920;2023-03-15T12:00:18;99987.28;;;20.45;40.28
6942;BME280;3510;43.200;27.920;2023-03-15T12:02:49;99979.81;;;20.80;40.22
6942;BME280;3510;43.200;27.920;2023-03-15T12:08:19;99963.13;;;21.23;39.08
6942;BME280;3510;43.200;27.920;2023-03-15T12:10:49;99980.28;;;21.57;38.61
6942;BME280;3510;43.200;27.920;2023-03-15T12:13:19;99959.13;;;21.63;38.23
6942;BME280;3510;43.200;27.920;2023-03-15T12:15:48;99997.44;;;22.26;37.60
6942;BME280;3510;43.200;27.920;2023-03-15T12:18:19;99991.06;;;22.46;36.73
6942;BME280;3510;43.200;27.920;2023-03-15T12:20:51;99989.09;;;22.35;37.04
6942;BME280;3510;43.200;27.920;2023-03-15T12:23:33;99985.00;;;23.23;35.69
6942;BME280;3510;43.200;27.920;2023-03-15T12:26:05;99999.84;;;22.56;37.22
6942;BME280;3510;43.200;27.920;2023-03-15T12:28:36;99982.81;;;22.22;37.33
6942;BME280;3510;43.200;27.920;2023-03-15T12:31:05;99967.19;;;21.78;38.21
6942;BME280;3510;43.200;27.920;2023-03-15T12:33:43;99990.81;;;22.36;37.69
6942;BME280;3510;43.200;27.920;2023-03-15T12:36:18;99997.16;;;21.82;38.68
6942;BME280;3510;43.200;27.920;2023-03-15T12:38:59;99946.28;;;21.31;39.15
6942;BME280;3510;43.200;27.920;2023-03-15T12:41:37;99977.19;;;21.69;39.14
6942;BME280;3510;43.200;27.920;2023-03-15T12:44:23;100009.06;;;21.47;39.80
6942;BME280;3510;43.200;27.920;2023-03-15T12:46:53;99949.56;;;21.57;39.32
6942;BME280;3510;43.200;27.920;2023-03-15T12:49:32;100006.56;;;22.15;38.92
6942;BME280;3510;43.200;27.920;2023-03-15T12:52:01;100004.88;;;22.17;38.83
6942;BME280;3510;43.200;27.920;2023-03-15T12:54:36;100009.53;;;22.69;38.14
6942;BME280;3510;43.200;27.920;2023-03-15T12:57:09;99948.91;;;22.34;38.00
6942;BME280;3510;43.200;27.920;2023-03-15T12:59:41;99982.59;;;21.80;39.35
6942;BME280;3510;43.200;27.920;2023-03-15T13:02:25;99993.75;;;21.20;41.07
6942;BME280;3510;43.200;27.920;2023-03-15T13:04:59;99987.47;;;22.04;39.35
6942;BME280;3510;43.200;27.920;2023-03-15T13:07:34;99991.25;;;21.52;39.81
6942;BME280;3510;43.200;27.920;2023-03-15T13:10:29;99995.81;;;21.01;40.91
6942;BME280;3510;43.200;27.920;2023-03-15T13:13:04;99956.91;;;21.43;40.18
6942;BME280;3510;43.200;27.920;2023-03-15T13:15:37;99960.91;;;22.00;38.98
6942;BME280;3510;43.200;27.920;2023-03-15T13:18:12;99976.44;;;22.08;39.00
6942;BME280;3510;43.200;27.920;2023-03-15T13:20:53;99912.38;;;21.38;39.74
6942;BME280;3510;43.200;27.920;2023-03-15T13:23:26;99951.66;;;21.39;40.00
6942;BME280;3510;43.200;27.920;2023-03-15T13:26:07;99953.41;;;21.40;39.67
6942;BME280;3510;43.200;27.920;2023-03-15T13:28:45;99946.13;;;20.93;40.53
6942;BME280;3510;43.200;27.920;2023-03-15T13:31:17;99979.50;;;20.98;40.87
6942;BME280;3510;43.200;27.920;2023-03-15T13:33:46;99968.25;;;20.63;41.60
6942;BME280;3510;43.200;27.920;2023-03-15T13:36:14;99979.84;;;20.51;42.30
6942;BME280;3510;43.200;27.920;2023-03-15T13:38:42;99978.78;;;20.19;43.01
6942;BME280;3510;43.200;27.920;2023-03-15T13:41:18;99981.34;;;20.46;43.06
6942;BME280;3510;43.200;27.920;2023-03-15T13:43:45;99981.94;;;20.11;43.47
6942;BME280;3510;43.200;27.920;2023-03-15T13:46:13;99980.63;;;19.96;43.89
6942;BME280;3510;43.200;27.920;2023-03-15T13:48:40;99976.34;;;19.95;43.80
6942;BME280;3510;43.200;27.920;2023-03-15T13:51:10;99966.13;;;20.78;42.42
6942;BME280;3510;43.200;27.920;2023-03-15T13:53:38;99969.50;;;20.48;42.79
6942;BME280;3510;43.200;27.920;2023-03-15T13:56:06;99970.13;;;20.98;41.85
6942;BME280;3510;43.200;27.920;2023-03-15T13:58:34;99968.75;;;21.40;40.96
6942;BME280;3510;43.200;27.920;2023-03-15T14:01:03;99965.81;;;20.67;41.92
6942;BME280;3510;43.200;27.920;2023-03-15T14:03:31;99964.84;;;21.22;41.00
6942;BME280;3510;43.200;27.920;2023-03-15T14:05:58;99966.00;;;21.65;40.28
6942;BME280;3510;43.200;27.920;2023-03-15T14:08:25;99961.81;;;20.48;42.28